sensor_id;sensor_type;location;lat;lon;timestamp;pressure;altitude;pressure_sealevel;temperature;humidity
51083;BME280;37131;42.694;23.350;2023-03-11T00:00:04;93701.75;;;9.16;100.00
51083;BME280;37131;42.694;23.350;2023-03-11T00:02:33;93708.03;;;9.25;100.00
51083;BME280;37131;42.694;23.350;2023-03-11T00:04:58;93714.00;;;9.20;100.00
51083;BME280;37131;42.694;23.350;2023-03-11T00:07:23;93716.59;;;9.25;100.00
51083;BME280;37131;42.694;23.350;2023-03-11T00:09:48;93727.44;;;9.12;100.00
51083;BME280;37131;42.694;23.350;2023-03-11T00:12:14;93712.34;;;9.04;100.00
51083;BME280;37131;42.694;23.350;2023-03-11T00:14:39;93707.34;;;8.97;100.00
51083;BME280;37131;42.694;23.350;2023-03-11T00:17:04;93662.31;;;8.43;100.00
51083;BME280;37131;42.694;23.350;2023-03-11T00:19:29;93697.06;;;8.70;100.00
51083;BME280;37131;42.694;23.350;2023-03-11T00:21:55;93687.38;;;8.60;100.00
51083;BME280;37131;42.694;23.350;2023-03-11T00:24:20;93684.81;;;8.65;100.00
51083;BME280;37131;42.694;23.350;2023-03-11T00:26:45;93676.72;;;8.62;100.00
51083;BME280;37131;42.694;23.350;2023-03-11T00:29:11;93667.38;;;8.60;100.00
51083;BME280;37131;42.694;23.350;2023-03-11T00:31:36;93673.38;;;8.61;100.00
51083;BME280;37131;42.694;23.350;2023-03-11T00:34:01;93673.06;;;8.57;100.00
51083;BME280;37131;42.694;23.350;2023-03-11T00:36:30;93666.31;;;8.56;100.00
51083;BME280;37131;42.694;23.350;2023-03-11T00:38:58;93666.84;;;8.58;100.00
51083;BME280;37131;42.694;23.350;2023-03-11T00:41:23;93667.41;;;8.66;100.00
51083;BME280;37131;42.694;23.350;2023-03-11T00:43:48;93672.88;;;8.64;100.00
51083;BME280;37131;42.694;23.350;2023-03-11T00:46:14;93680.59;;;8.59;100.00
51083;BME280;37131;42.694;23.350;2023-03-11T00:48:39;93668.44;;;8.65;100.00
51083;BME280;37131;42.694;23.350;2023-03-11T00:51:06;93659.63;;;8.66;100.00
51083;BME280;37131;42.694;23.350;2023-03-11T00:53:31;93656.84;;;8.77;100.00
51083;BME280;37131;42.694;23.350;2023-03-11T00:55:56;93647.69;;;8.70;100.00
51083;BME280;37131;42.694;23.350;2023-03-11T00:58:22;93642.19;;;8.61;100.00
51083;BME280;37131;42.694;23.350;2023-03-11T01:00:51;93636.69;;;8.57;100.00
51083;BME280;37131;42.694;23.350;2023-03-11T01:03:16;93630.91;;;8.45;100.00
51083;BME280;37131;42.694;23.350;2023-03-11T01:05:41;93632.25;;;8.48;100.00
51083;BME280;37131;42.694;23.350;2023-03-11T01:08:07;93632.81;;;8.55;100.00
51083;BME280;37131;42.694;23.350;2023-03-11T01:10:33;93639.34;;;8.63;100.00
51083;BME280;37131;42.694;23.350;2023-03-11T01:12:58;93629.72;;;8.63;100.00
51083;BME280;37131;42.694;23.350;2023-03-11T01:15:30;93624.56;;;8.68;100.00
51083;BME280;37131;42.694;23.350;2023-03-11T01:17:55;93617.25;;;8.60;100.00
51083;BME280;37131;42.694;23.350;2023-03-11T01:20:20;93612.50;;;8.52;100.00
51083;BME280;37131;42.694;23.350;2023-03-11T01:22:46;93608.50;;;8.39;100.00
51083;BME280;37131;42.694;23.350;2023-03-11T01:25:12;93599.25;;;8.48;100.00
51083;BME280;37131;42.694;23.350;2023-03-11T01:27:38;93593.59;;;8.56;100.00
51083;BME280;37131;42.694;23.350;2023-03-11T01:30:03;93583.22;;;8.62;100.00
51083;BME280;37131;42.694;23.350;2023-03-11T01:32:28;93579.59;;;8.68;100.00
51083;BME280;37131;42.694;23.350;2023-03-11T01:34:54;93578.81;;;8.67;100.00
51083;BME280;37131;42.694;23.350;2023-03-11T01:37:20;93574.09;;;8.54;100.00
51083;BME280;37131;42.694;23.350;2023-03-11T01:39:45;93576.69;;;8.54;100.00
51083;BME280;37131;42.694;23.350;2023-03-11T01:42:10;93562.47;;;8.67;100.00
51083;BME280;37131;42.694;23.350;2023-03-11T01:44:35;93562.03;;;8.37;100.00
51083;BME280;37131;42.694;23.350;2023-03-11T01:49:26;93566.28;;;8.16;100.00
51083;BME280;37131;42.694;23.350;2023-03-11T01:51:53;93567.09;;;8.17;100.00
51083;BME280;37131;42.694;23.350;2023-03-11T01:54:21;93569.13;;;8.10;100.00
51083;BME280;37131;42.694;23.350;2023-03-11T01:56:48;93579.25;;;8.11;100.00
51083;BME280;37131;42.694;23.350;2023-03-11T01:59:15;93595.75;;;8.00;100.00
51083;BME280;37131;42.694;23.350;2023-03-11T02:01:55;93576.91;;;8.10;100.00
51083;BME280;37131;42.694;23.350;2023-03-11T02:04:23;93583.25;;;8.24;100.00
51083;BME280;37131;42.694;23.350;2023-03-11T02:06:49;93589.19;;;8.19;100.00
51083;BME280;37131;42.694;23.350;2023-03-11T02:09:14;93581.16;;;8.26;100.00
51083;BME280;37131;42.694;23.350;2023-03-11T02:11:39;93590.88;;;8.03;100.00
51083;BME280;37131;42.694;23.350;2023-03-11T02:14:05;93598.34;;;7.95;100.00
51083;BME280;37131;42.694;23.350;2023-03-11T02:16:32;93615.94;;;7.93;100.00
51083;BME280;37131;42.694;23.350;2023-03-11T02:18:58;93607.22;;;8.04;100.00
51083;BME280;37131;42.694;23.350;2023-03-11T02:21:25;93620.69;;;8.01;100.00
51083;BME280;37131;42.694;23.350;2023-03-11T02:26:21;93617.94;;;8.13;100.00
51083;BME280;37131;42.694;23.350;2023-03-11T02:28:48;93619.25;;;8.15;100.00
51083;BME280;37131;42.694;23.350;2023-03-11T02:31:14;93611.91;;;8.02;100.00
51083;BME280;37131;42.694;23.350;2023-03-11T02:33:40;93617.75;;;7.87;100.00
51083;BME280;37131;42.694;23.350;2023-03-11T02:36:06;93620.63;;;7.90;100.00
51083;BME280;37131;42.694;23.350;2023-03-11T02:38:31;93608.47;;;7.96;100.00
51083;BME280;37131;42.694;23.350;2023-03-11T02:41:00;93601.22;;;7.98;100.00
51083;BME280;37131;42.694;23.350;2023-03-11T02:43:42;93598.69;;;8.08;100.00
51083;BME280;37131;42.694;23.350;2023-03-11T02:46:09;93595.91;;;8.15;100.00
51083;BME280;37131;42.694;23.350;2023-03-11T02:48:35;93610.91;;;8.13;100.00
51083;BME280;37131;42.694;23.350;2023-03-11T02:51:02;93612.03;;;8.22;100.00
51083;BME280;37131;42.694;23.350;2023-03-11T02:53:27;93617.25;;;8.22;100.00
51083;BME280;37131;42.694;23.350;2023-03-11T02:55:54;93612.44;;;8.41;100.00
51083;BME280;37131;42.694;23.350;2023-03-11T02:58:19;93617.84;;;8.35;100.00
51083;BME280;37131;42.694;23.350;2023-03-11T03:00:45;93619.50;;;8.46;100.00
51083;BME280;37131;42.694;23.350;2023-03-11T03:03:10;93615.41;;;8.55;100.00
51083;BME280;37131;42.694;23.350;2023-03-11T03:05:35;93618.00;;;8.55;100.00
51083;BME280;37131;42.694;23.350;2023-03-11T03:08:00;93626.34;;;8.63;100.00
51083;BME280;37131;42.694;23.350;2023-03-11T03:10:26;93619.63;;;8.67;100.00
51083;BME280;37131;42.694;23.350;2023-03-11T03:12:52;93619.63;;;8.67;100.00
51083;BME280;37131;42.694;23.350;2023-03-11T03:15:17;93625.97;;;8.91;100.00
51083;BME280;37131;42.694;23.350;2023-03-11T03:17:42;93618.22;;;9.02;100.00
51083;BME280;37131;42.694;23.350;2023-03-11T03:20:08;93626.03;;;9.07;100.00
51083;BME280;37131;42.694;23.350;2023-03-11T03:22:36;93627.81;;;8.96;100.00
51083;BME280;37131;42.694;23.350;2023-03-11T03:25:01;93624.13;;;8.87;100.00
51083;BME280;37131;42.694;23.350;2023-03-11T03:27:26;93626.41;;;8.78;100.00
51083;BME280;37131;42.694;23.350;2023-03-11T03:29:51;93640.94;;;8.74;100.00
51083;BME280;37131;42.694;23.350;2023-03-11T03:32:17;93628.31;;;8.45;100.00
51083;BME280;37131;42.694;23.350;2023-03-11T03:34:42;93645.88;;;8.33;100.00
51083;BME280;37131;42.694;23.350;2023-03-11T03:37:07;93636.09;;;8.45;100.00
51083;BME280;37131;42.694;23.350;2023-03-11T03:39:32;93630.63;;;8.41;100.00
51083;BME280;37131;42.694;23.350;2023-03-11T03:41:58;93629.78;;;8.36;100.00
51083;BME280;37131;42.694;23.350;2023-03-11T03:44:23;93629.50;;;8.32;100.00
51083;BME280;37131;42.694;23.350;2023-03-11T03:46:48;93633.16;;;8.36;100.00
51083;BME280;37131;42.694;23.350;2023-03-11T03:49:13;93629.06;;;8.08;100.00
51083;BME280;37131;42.694;23.350;2023-03-11T03:51:39;93630.50;;;7.94;100.00
51083;BME280;37131;42.694;23.350;2023-03-11T03:54:04;93635.25;;;8.02;100.00
51083;BME280;37131;42.694;23.350;2023-03-11T03:56:29;93620.94;;;7.99;100.00
51083;BME280;37131;42.694;23.350;2023-03-11T03:58:55;93615.00;;;8.04;100.00
51083;BME280;37131;42.694;23.350;2023-03-11T04:01:20;93615.00;;;8.04;100.00
51083;BME280;37131;42.694;23.350;2023-03-11T04:03:45;93619.34;;;7.93;100.00
51083;BME280;37131;42.694;23.350;2023-03-11T04:08:38;93614.00;;;8.05;100.00
51083;BME280;37131;42.694;23.350;2023-03-11T04:11:04;93614.25;;;8.03;100.00
51083;BME280;37131;42.694;23.350;2023-03-11T04:13:29;93609.03;;;8.03;100.00
51083;BME280;37131;42.694;23.350;2023-03-11T04:15:55;93606.72;;;8.07;100.00
51083;BME280;37131;42.694;23.350;2023-03-11T04:18:20;93609.31;;;8.07;100.00
51083;BME280;37131;42.694;23.350;2023-03-11T04:20:46;93612.25;;;8.16;100.00
51083;BME280;37131;42.694;23.350;2023-03-11T04:23:12;93614.09;;;8.20;100.00
51083;BME280;37131;42.694;23.350;2023-03-11T04:25:37;93622.69;;;8.21;100.00
51083;BME280;37131;42.694;23.350;2023-03-11T04:28:02;93625.31;;;8.26;100.00
51083;BME280;37131;42.694;23.350;2023-03-11T04:30:27;93616.75;;;8.31;100.00
51083;BME280;37131;42.694;23.350;2023-03-11T04:32:53;93612.66;;;8.40;100.00
51083;BME280;37131;42.694;23.350;2023-03-11T04:35:18;93611.72;;;8.46;100.00
51083;BME280;37131;42.694;23.350;2023-03-11T04:37:43;93608.06;;;8.47;100.00
51083;BME280;37131;42.694;23.350;2023-03-11T04:40:09;93615.66;;;8.54;100.00
51083;BME280;37131;42.694;23.350;2023-03-11T04:42:35;93612.91;;;8.76;100.00
51083;BME280;37131;42.694;23.350;2023-03-11T04:45:00;93620.81;;;8.97;94.80
51083;BME280;37131;42.694;23.350;2023-03-11T04:47:25;93613.56;;;9.09;92.72
51083;BME280;37131;42.694;23.350;2023-03-11T04:49:51;93617.75;;;9.15;91.94
51083;BME280;37131;42.694;23.350;2023-03-11T04:52:16;93616.50;;;9.28;89.44
51083;BME280;37131;42.694;23.350;2023-03-11T04:54:41;93624.03;;;9.29;91.46
51083;BME280;37131;42.694;23.350;2023-03-11T04:57:07;93609.97;;;9.25;93.93
51083;BME280;37131;42.694;23.350;2023-03-11T04:59:32;93614.19;;;9.32;93.61
51083;BME280;37131;42.694;23.350;2023-03-11T05:01:57;93627.72;;;9.49;85.93
51083;BME280;37131;42.694;23.350;2023-03-11T05:04:23;93638.16;;;9.54;87.67
51083;BME280;37131;42.694;23.350;2023-03-11T05:06:48;93635.03;;;9.57;86.99
51083;BME280;37131;42.694;23.350;2023-03-11T05:09:16;93645.72;;;9.71;85.60
51083;BME280;37131;42.694;23.350;2023-03-11T05:11:41;93645.75;;;9.76;83.36
51083;BME280;37131;42.694;23.350;2023-03-11T05:14:06;93641.34;;;9.87;80.22
51083;BME280;37131;42.694;23.350;2023-03-11T05:16:32;93652.28;;;9.94;80.50
51083;BME280;37131;42.694;23.350;2023-03-11T05:18:57;93646.31;;;9.94;80.67
51083;BME280;37131;42.694;23.350;2023-03-11T05:21:22;93645.75;;;9.92;80.80
51083;BME280;37131;42.694;23.350;2023-03-11T05:23:48;93654.38;;;10.03;79.69
51083;BME280;37131;42.694;23.350;2023-03-11T05:26:13;93663.25;;;10.12;78.64
51083;BME280;37131;42.694;23.350;2023-03-11T05:28:39;93668.19;;;10.13;79.52
51083;BME280;37131;42.694;23.350;2023-03-11T05:31:08;93671.56;;;10.09;78.07
51083;BME280;37131;42.694;23.350;2023-03-11T05:33:34;93675.75;;;10.15;78.42
51083;BME280;37131;42.694;23.350;2023-03-11T05:36:06;93672.09;;;10.11;79.01
51083;BME280;37131;42.694;23.350;2023-03-11T05:38:32;93678.59;;;10.08;78.97
51083;BME280;37131;42.694;23.350;2023-03-11T05:40:57;93676.53;;;10.10;76.95
51083;BME280;37131;42.694;23.350;2023-03-11T05:43:23;93688.00;;;10.14;77.05
51083;BME280;37131;42.694;23.350;2023-03-11T05:45:48;93684.59;;;10.19;76.47
51083;BME280;37131;42.694;23.350;2023-03-11T05:48:13;93693.97;;;10.30;77.66
51083;BME280;37131;42.694;23.350;2023-03-11T05:50:38;93694.22;;;10.29;77.44
51083;BME280;37131;42.694;23.350;2023-03-11T05:53:04;93699.19;;;10.25;76.63
51083;BME280;37131;42.694;23.350;2023-03-11T05:55:29;93711.16;;;10.31;76.73
51083;BME280;37131;42.694;23.350;2023-03-11T05:57:54;93714.09;;;10.35;75.89
51083;BME280;37131;42.694;23.350;2023-03-11T06:00:19;93718.50;;;10.45;77.96
51083;BME280;37131;42.694;23.350;2023-03-11T06:02:45;93724.78;;;10.44;76.75
51083;BME280;37131;42.694;23.350;2023-03-11T06:05:10;93722.16;;;10.44;77.67
51083;BME280;37131;42.694;23.350;2023-03-11T06:07:35;93724.75;;;10.39;78.93
51083;BME280;37131;42.694;23.350;2023-03-11T06:10:02;93722.66;;;10.41;81.25
51083;BME280;37131;42.694;23.350;2023-03-11T06:12:27;93727.09;;;10.35;78.21
51083;BME280;37131;42.694;23.350;2023-03-11T06:14:52;93729.41;;;10.31;78.30
51083;BME280;37131;42.694;23.350;2023-03-11T06:17:18;93723.16;;;10.27;79.02
51083;BME280;37131;42.694;23.350;2023-03-11T06:19:43;93733.09;;;10.41;79.80
51083;BME280;37131;42.694;23.350;2023-03-11T06:22:08;93731.25;;;10.31;78.56
51083;BME280;37131;42.694;23.350;2023-03-11T06:24:34;93728.13;;;10.34;79.31
51083;BME280;37131;42.694;23.350;2023-03-11T06:26:59;93745.56;;;10.28;79.88
51083;BME280;37131;42.694;23.350;2023-03-11T06:29:24;93737.22;;;10.31;80.09
51083;BME280;37131;42.694;23.350;2023-03-11T06:31:50;93737.53;;;10.35;81.50
51083;BME280;37131;42.694;23.350;2023-03-11T06:34:16;93738.03;;;10.32;84.25
51083;BME280;37131;42.694;23.350;2023-03-11T06:36:41;93730.47;;;10.35;85.31
51083;BME280;37131;42.694;23.350;2023-03-11T06:39:06;93729.97;;;10.33;85.98
51083;BME280;37131;42.694;23.350;2023-03-11T06:41:33;93732.06;;;10.37;86.68
51083;BME280;37131;42.694;23.350;2023-03-11T06:43:58;93734.34;;;10.33;86.17
51083;BME280;37131;42.694;23.350;2023-03-11T06:46:24;93730.22;;;10.32;86.70
51083;BME280;37131;42.694;23.350;2023-03-11T06:48:49;93728.38;;;10.32;86.54
51083;BME280;37131;42.694;23.350;2023-03-11T06:51:16;93735.44;;;10.37;85.95
51083;BME280;37131;42.694;23.350;2023-03-11T06:53:42;93739.56;;;10.28;85.55
51083;BME280;37131;42.694;23.350;2023-03-11T06:56:08;93740.59;;;10.16;86.45
51083;BME280;37131;42.694;23.350;2023-03-11T06:58:34;93739.56;;;10.23;86.19
51083;BME280;37131;42.694;23.350;2023-03-11T07:01:00;93731.53;;;10.40;87.42
51083;BME280;37131;42.694;23.350;2023-03-11T07:03:26;93734.66;;;10.47;88.76
51083;BME280;37131;42.694;23.350;2023-03-11T07:05:51;93739.34;;;10.45;86.95
51083;BME280;37131;42.694;23.350;2023-03-11T07:08:17;93735.19;;;10.33;87.97
51083;BME280;37131;42.694;23.350;2023-03-11T07:10:42;93744.03;;;10.48;88.59
51083;BME280;37131;42.694;23.350;2023-03-11T07:13:07;93743.00;;;10.39;86.82
51083;BME280;37131;42.694;23.350;2023-03-11T07:15:33;93744.31;;;10.41;83.04
51083;BME280;37131;42.694;23.350;2023-03-11T07:17:59;93738.28;;;10.41;83.26
51083;BME280;37131;42.694;23.350;2023-03-11T07:20:24;93736.22;;;10.58;84.21
51083;BME280;37131;42.694;23.350;2023-03-11T07:22:49;93731.28;;;10.51;85.05
51083;BME280;37131;42.694;23.350;2023-03-11T07:25:15;93731.00;;;10.58;83.24
51083;BME280;37131;42.694;23.350;2023-03-11T07:27:40;93731.53;;;10.70;83.91
51083;BME280;37131;42.694;23.350;2023-03-11T07:30:05;93721.38;;;10.64;84.24
51083;BME280;37131;42.694;23.350;2023-03-11T07:32:31;93712.50;;;10.80;84.13
51083;BME280;37131;42.694;23.350;2023-03-11T07:34:56;93715.84;;;10.96;84.53
51083;BME280;37131;42.694;23.350;2023-03-11T07:37:21;93712.50;;;10.85;83.64
51083;BME280;37131;42.694;23.350;2023-03-11T07:39:47;93702.31;;;10.79;83.34
51083;BME280;37131;42.694;23.350;2023-03-11T07:42:12;93702.84;;;10.76;83.38
51083;BME280;37131;42.694;23.350;2023-03-11T07:44:37;93702.34;;;10.53;83.54
51083;BME280;37131;42.694;23.350;2023-03-11T07:47:03;93700.78;;;10.62;85.68
51083;BME280;37131;42.694;23.350;2023-03-11T07:49:28;93696.59;;;10.77;81.35
51083;BME280;37131;42.694;23.350;2023-03-11T07:51:54;93694.25;;;10.75;81.75
51083;BME280;37131;42.694;23.350;2023-03-11T07:54:20;93701.53;;;10.88;77.24
51083;BME280;37131;42.694;23.350;2023-03-11T07:56:45;93689.00;;;10.96;76.92
51083;BME280;37131;42.694;23.350;2023-03-11T07:59:10;93679.84;;;11.09;74.43
51083;BME280;37131;42.694;23.350;2023-03-11T08:01:36;93680.38;;;11.11;73.79
51083;BME280;37131;42.694;23.350;2023-03-11T08:04:05;93671.97;;;11.24;73.42
51083;BME280;37131;42.694;23.350;2023-03-11T08:06:31;93660.19;;;11.37;72.64
51083;BME280;37131;42.694;23.350;2023-03-11T08:08:58;93660.38;;;11.51;72.00
51083;BME280;37131;42.694;23.350;2023-03-11T08:11:23;93652.06;;;11.44;72.31
51083;BME280;37131;42.694;23.350;2023-03-11T08:13:49;93642.16;;;11.40;71.41
51083;BME280;37131;42.694;23.350;2023-03-11T08:16:15;93640.06;;;11.43;71.40
51083;BME280;37131;42.694;23.350;2023-03-11T08:18:42;93637.06;;;11.65;70.52
51083;BME280;37131;42.694;23.350;2023-03-11T08:21:08;93632.97;;;11.53;70.28
51083;BME280;37131;42.694;23.350;2023-03-11T08:23:34;93625.09;;;11.64;69.68
51083;BME280;37131;42.694;23.350;2023-03-11T08:26:06;93626.84;;;11.73;68.91
51083;BME280;37131;42.694;23.350;2023-03-11T08:28:32;93616.38;;;11.79;68.07
51083;BME280;37131;42.694;23.350;2023-03-11T08:30:57;93610.88;;;11.80;67.06
51083;BME280;37131;42.694;23.350;2023-03-11T08:33:22;93617.88;;;11.90;66.38
51083;BME280;37131;42.694;23.350;2023-03-11T08:35:47;93610.31;;;11.93;65.54
51083;BME280;37131;42.694;23.350;2023-03-11T08:38:13;93600.59;;;11.99;66.32
51083;BME280;37131;42.694;23.350;2023-03-11T08:40:38;93596.53;;;12.17;66.71
51083;BME280;37131;42.694;23.350;2023-03-11T08:43:03;93596.38;;;12.38;66.04
51083;BME280;37131;42.694;23.350;2023-03-11T08:45:28;93598.28;;;12.56;65.07
51083;BME280;37131;42.694;23.350;2023-03-11T08:47:54;93596.56;;;12.71;64.10
51083;BME280;37131;42.694;23.350;2023-03-11T08:50:19;93602.78;;;12.99;62.64
51083;BME280;37131;42.694;23.350;2023-03-11T08:52:44;93582.72;;;12.70;58.87
51083;BME280;37131;42.694;23.350;2023-03-11T09:04:15;93574.19;;;13.08;55.96
51083;BME280;37131;42.694;23.350;2023-03-11T09:06:41;93582.75;;;13.13;56.53
51083;BME280;37131;42.694;23.350;2023-03-11T09:09:08;93575.78;;;13.28;54.86
51083;BME280;37131;42.694;23.350;2023-03-11T09:11:34;93568.41;;;13.30;56.02
51083;BME280;37131;42.694;23.350;2023-03-11T09:14:01;93577.31;;;13.10;54.96
51083;BME280;37131;42.694;23.350;2023-03-11T09:16:26;93575.91;;;13.18;55.26
51083;BME280;37131;42.694;23.350;2023-03-11T09:18:52;93560.41;;;13.02;55.75
51083;BME280;37131;42.694;23.350;2023-03-11T09:21:17;93561.44;;;13.01;55.22
51083;BME280;37131;42.694;23.350;2023-03-11T09:23:42;93558.78;;;13.25;56.55
51083;BME280;37131;42.694;23.350;2023-03-11T09:26:08;93563.69;;;13.32;54.90
51083;BME280;37131;42.694;23.350;2023-03-11T09:28:33;93558.84;;;13.44;53.84
51083;BME280;37131;42.694;23.350;2023-03-11T09:30:58;93561.97;;;13.46;56.10
51083;BME280;37131;42.694;23.350;2023-03-11T09:33:23;93556.50;;;13.62;54.40
51083;BME280;37131;42.694;23.350;2023-03-11T09:35:49;93552.09;;;13.76;54.60
51083;BME280;37131;42.694;23.350;2023-03-11T09:40:24;93540.84;;;14.09;54.39
51083;BME280;37131;42.694;23.350;2023-03-11T09:45:20;93553.06;;;14.46;50.49
51083;BME280;37131;42.694;23.350;2023-03-11T09:55:44;93548.91;;;14.59;50.50
51083;BME280;37131;42.694;23.350;2023-03-11T09:58:55;93538.19;;;14.55;49.98
51083;BME280;37131;42.694;23.350;2023-03-11T10:00:55;93545.06;;;14.37;51.39
51083;BME280;37131;42.694;23.350;2023-03-11T10:03:28;93539.25;;;14.27;49.57
51083;BME280;37131;42.694;23.350;2023-03-11T10:06:19;93549.56;;;14.37;49.87
51083;BME280;37131;42.694;23.350;2023-03-11T10:13:43;93542.16;;;15.36;45.77
51083;BME280;37131;42.694;23.350;2023-03-11T10:21:05;93545.28;;;15.24;44.82
51083;BME280;37131;42.694;23.350;2023-03-11T10:23:52;93548.66;;;15.39;44.81
51083;BME280;37131;42.694;23.350;2023-03-11T10:26:31;93557.06;;;15.13;46.10
51083;BME280;37131;42.694;23.350;2023-03-11T10:29:02;93545.16;;;15.43;45.59
51083;BME280;37131;42.694;23.350;2023-03-11T10:31:36;93551.22;;;15.67;46.10
51083;BME280;37131;42.694;23.350;2023-03-11T10:36:38;93551.63;;;15.60;45.38
51083;BME280;37131;42.694;23.350;2023-03-11T10:39:05;93542.75;;;15.33;46.60
51083;BME280;37131;42.694;23.350;2023-03-11T10:41:43;93540.38;;;14.95;46.31
51083;BME280;37131;42.694;23.350;2023-03-11T10:44:18;93549.22;;;14.71;48.13
51083;BME280;37131;42.694;23.350;2023-03-11T10:46:45;93558.84;;;14.62;49.33
51083;BME280;37131;42.694;23.350;2023-03-11T10:49:14;93545.41;;;14.50;49.95
51083;BME280;37131;42.694;23.350;2023-03-11T10:51:39;93576.34;;;14.34;52.71
51083;BME280;37131;42.694;23.350;2023-03-11T10:54:05;93599.31;;;14.23;53.77
51083;BME280;37131;42.694;23.350;2023-03-11T10:59:00;93595.22;;;12.73;64.43
51083;BME280;37131;42.694;23.350;2023-03-11T11:01:26;93590.22;;;12.53;67.91
51083;BME280;37131;42.694;23.350;2023-03-11T11:03:53;93578.81;;;12.14;72.07
51083;BME280;37131;42.694;23.350;2023-03-11T11:06:24;93583.94;;;12.24;73.73
51083;BME280;37131;42.694;23.350;2023-03-11T11:09:02;93589.28;;;12.38;67.96
51083;BME280;37131;42.694;23.350;2023-03-11T11:11:28;93589.78;;;12.70;65.57
51083;BME280;37131;42.694;23.350;2023-03-11T11:13:56;93586.69;;;12.92;64.23
51083;BME280;37131;42.694;23.350;2023-03-11T11:16:22;93574.97;;;13.08;65.83
51083;BME280;37131;42.694;23.350;2023-03-11T11:18:53;93577.06;;;13.06;61.68
51083;BME280;37131;42.694;23.350;2023-03-11T11:21:33;93564.22;;;13.10;64.08
51083;BME280;37131;42.694;23.350;2023-03-11T11:24:03;93553.25;;;13.51;59.59
51083;BME280;37131;42.694;23.350;2023-03-11T11:26:31;93547.75;;;13.28;59.80
51083;BME280;37131;42.694;23.350;2023-03-11T11:31:30;93538.56;;;13.31;59.31
51083;BME280;37131;42.694;23.350;2023-03-11T11:33:55;93534.13;;;13.69;60.24
51083;BME280;37131;42.694;23.350;2023-03-11T11:36:21;93531.41;;;13.94;57.94
51083;BME280;37131;42.694;23.350;2023-03-11T11:38:51;93522.88;;;14.02;60.07
51083;BME280;37131;42.694;23.350;2023-03-11T11:41:17;93520.59;;;14.14;56.43
51083;BME280;37131;42.694;23.350;2023-03-11T11:46:20;93517.22;;;14.28;53.22
51083;BME280;37131;42.694;23.350;2023-03-11T11:48:53;93513.72;;;14.32;52.40
51083;BME280;37131;42.694;23.350;2023-03-11T11:51:41;93501.09;;;14.20;50.89
51083;BME280;37131;42.694;23.350;2023-03-11T11:56:31;93488.69;;;14.68;49.69
51083;BME280;37131;42.694;23.350;2023-03-11T11:58:56;93489.47;;;14.82;48.56
51083;BME280;37131;42.694;23.350;2023-03-11T12:01:24;93489.91;;;14.98;49.28
51083;BME280;37131;42.694;23.350;2023-03-11T12:12:07;93477.41;;;14.67;47.74
51083;BME280;37131;42.694;23.350;2023-03-11T12:14:48;93459.47;;;15.48;46.02
51083;BME280;37131;42.694;23.350;2023-03-11T12:17:16;93473.28;;;16.07;44.87
51083;BME280;37131;42.694;23.350;2023-03-11T12:19:53;93452.44;;;17.26;40.48
51083;BME280;37131;42.694;23.350;2023-03-11T12:22:28;93449.69;;;18.14;38.55
51083;BME280;37131;42.694;23.350;2023-03-11T12:27:35;93457.56;;;18.61;35.35
51083;BME280;37131;42.694;23.350;2023-03-11T12:30:15;93460.22;;;18.91;35.01
51083;BME280;37131;42.694;23.350;2023-03-11T12:32:43;93459.78;;;18.20;36.68
51083;BME280;37131;42.694;23.350;2023-03-11T12:37:43;93458.94;;;17.46;40.09
51083;BME280;37131;42.694;23.350;2023-03-11T12:42:52;93454.59;;;17.59;38.80
51083;BME280;37131;42.694;23.350;2023-03-11T12:48:31;93469.16;;;17.04;40.43
51083;BME280;37131;42.694;23.350;2023-03-11T12:50:57;93468.31;;;16.77;41.06
51083;BME280;37131;42.694;23.350;2023-03-11T12:58:36;93490.75;;;15.58;44.25
51083;BME280;37131;42.694;23.350;2023-03-11T13:01:23;93487.16;;;15.54;44.60
51083;BME280;37131;42.694;23.350;2023-03-11T13:06:22;93510.91;;;15.12;45.84
51083;BME280;37131;42.694;23.350;2023-03-11T13:08:53;93516.25;;;15.21;45.55
51083;BME280;37131;42.694;23.350;2023-03-11T13:11:42;93511.03;;;14.93;45.69
51083;BME280;37131;42.694;23.350;2023-03-11T13:16:37;93527.41;;;14.43;47.79
51083;BME280;37131;42.694;23.350;2023-03-11T13:21:46;93556.78;;;13.79;52.58
51083;BME280;37131;42.694;23.350;2023-03-11T13:42:11;93648.28;;;11.05;80.00
51083;BME280;37131;42.694;23.350;2023-03-11T13:44:37;93654.13;;;10.61;83.95
51083;BME280;37131;42.694;23.350;2023-03-11T13:47:08;93654.13;;;10.30;86.45
51083;BME280;37131;42.694;23.350;2023-03-11T13:49:45;93649.19;;;10.03;89.62
51083;BME280;37131;42.694;23.350;2023-03-11T13:52:24;93657.75;;;10.08;88.78
51083;BME280;37131;42.694;23.350;2023-03-11T13:57:35;93662.72;;;10.15;83.07
51083;BME280;37131;42.694;23.350;2023-03-11T14:00:12;93655.94;;;10.24;nan
51083;BME280;37131;42.694;23.350;2023-03-11T14:02:48;93645.53;;;10.29;88.04
51083;BME280;37131;42.694;23.350;2023-03-11T14:05:16;93635.09;;;10.24;86.99
51083;BME280;37131;42.694;23.350;2023-03-11T14:07:43;93639.28;;;10.25;87.24
51083;BME280;37131;42.694;23.350;2023-03-11T14:10:14;93637.44;;;10.26;90.08
51083;BME280;37131;42.694;23.350;2023-03-11T14:12:40;93628.88;;;10.35;88.43
51083;BME280;37131;42.694;23.350;2023-03-11T14:15:06;93623.66;;;10.41;84.84
51083;BME280;37131;42.694;23.350;2023-03-11T14:17:32;93634.84;;;10.57;86.00
51083;BME280;37131;42.694;23.350;2023-03-11T14:20:04;93651.00;;;10.53;87.46
51083;BME280;37131;42.694;23.350;2023-03-11T14:22:31;93658.06;;;10.53;86.80
51083;BME280;37131;42.694;23.350;2023-03-11T14:24:57;93657.25;;;10.58;88.80
51083;BME280;37131;42.694;23.350;2023-03-11T14:27:22;93658.56;;;10.60;88.19
51083;BME280;37131;42.694;23.350;2023-03-11T14:29:48;93654.16;;;10.45;89.76
51083;BME280;37131;42.694;23.350;2023-03-11T14:32:24;93657.25;;;10.52;91.47